Terminal Aerodrome Forecast
Issued by NWS Charleston, WV

Current Version | Previous Version | Graphics & Text | Print | Product List | Glossary On
Versions: 1 2 3 4 5 6 7 8 9 10 11 12 13 14 15 16 17 18 19 20 21 22 23 24 25 26
000
FTUS41 KRLX 060258 AAA
TAFPKB
TAF AMD
KPKB 060258Z 0603/0624 00000KT P6SM SKC
     FM060600 00000KT 5SM BR SCT035
     FM060700 00000KT 2SM BR BKN018
     FM061400 00000KT P6SM BKN014
     FM061600 VRB03KT P6SM BKN020
     FM061800 28004KT P6SM VCTS BKN025CB
     FM062000 23004KT P6SM VCTS BKN035CB
     FM062300 VRB03KT P6SM BKN035=

USA.gov is the U.S. government's official web portal to all federal, state and local government web resources and services.